sensor_id;sensor_type;location;lat;lon;timestamp;temperature;humidity
78345;DHT22;67620;51.134;6.548;2024-03-22T00:01:46;11.10;80.90
78345;DHT22;67620;51.134;6.548;2024-03-22T00:04:11;11.10;80.80
78345;DHT22;67620;51.134;6.548;2024-03-22T00:06:38;11.10;80.60
78345;DHT22;67620;51.134;6.548;2024-03-22T00:09:04;11.10;80.50
78345;DHT22;67620;51.134;6.548;2024-03-22T00:11:29;11.20;80.30
78345;DHT22;67620;51.134;6.548;2024-03-22T00:13:55;11.20;80.30
78345;DHT22;67620;51.134;6.548;2024-03-22T00:16:20;11.20;80.30
78345;DHT22;67620;51.134;6.548;2024-03-22T00:18:46;11.20;80.50
78345;DHT22;67620;51.134;6.548;2024-03-22T00:21:12;11.20;80.10
78345;DHT22;67620;51.134;6.548;2024-03-22T00:23:37;11.10;80.60
78345;DHT22;67620;51.134;6.548;2024-03-22T00:26:03;11.10;80.50
78345;DHT22;67620;51.134;6.548;2024-03-22T00:28:28;11.10;80.30
78345;DHT22;67620;51.134;6.548;2024-03-22T00:30:54;11.10;80.30
78345;DHT22;67620;51.134;6.548;2024-03-22T00:33:20;11.10;80.50
78345;DHT22;67620;51.134;6.548;2024-03-22T00:35:45;11.10;80.60
78345;DHT22;67620;51.134;6.548;2024-03-22T00:38:11;11.10;80.30
78345;DHT22;67620;51.134;6.548;2024-03-22T00:40:37;11.10;80.30
78345;DHT22;67620;51.134;6.548;2024-03-22T00:43:02;11.10;80.30
78345;DHT22;67620;51.134;6.548;2024-03-22T00:45:28;11.00;80.70
78345;DHT22;67620;51.134;6.548;2024-03-22T00:47:53;11.10;80.50
78345;DHT22;67620;51.134;6.548;2024-03-22T00:50:19;11.00;80.80
78345;DHT22;67620;51.134;6.548;2024-03-22T00:52:45;11.00;80.90
78345;DHT22;67620;51.134;6.548;2024-03-22T00:55:10;11.10;80.70
78345;DHT22;67620;51.134;6.548;2024-03-22T00:57:36;11.10;80.80
78345;DHT22;67620;51.134;6.548;2024-03-22T01:00:02;11.10;80.90
78345;DHT22;67620;51.134;6.548;2024-03-22T01:02:27;11.00;81.10
78345;DHT22;67620;51.134;6.548;2024-03-22T01:04:53;11.10;81.00
78345;DHT22;67620;51.134;6.548;2024-03-22T01:07:19;11.10;81.20
78345;DHT22;67620;51.134;6.548;2024-03-22T01:09:44;11.10;81.10
78345;DHT22;67620;51.134;6.548;2024-03-22T01:12:10;11.00;81.20
78345;DHT22;67620;51.134;6.548;2024-03-22T01:14:36;11.00;81.30
78345;DHT22;67620;51.134;6.548;2024-03-22T01:17:01;10.90;81.80
78345;DHT22;67620;51.134;6.548;2024-03-22T01:19:27;10.90;82.10
78345;DHT22;67620;51.134;6.548;2024-03-22T01:21:52;10.90;82.00
78345;DHT22;67620;51.134;6.548;2024-03-22T01:24:18;11.00;81.70
78345;DHT22;67620;51.134;6.548;2024-03-22T01:26:44;11.00;81.90
78345;DHT22;67620;51.134;6.548;2024-03-22T01:29:09;11.00;81.80
78345;DHT22;67620;51.134;6.548;2024-03-22T01:31:35;11.00;81.90
78345;DHT22;67620;51.134;6.548;2024-03-22T01:34:00;11.00;81.80
78345;DHT22;67620;51.134;6.548;2024-03-22T01:36:26;11.10;81.50
78345;DHT22;67620;51.134;6.548;2024-03-22T01:38:51;11.10;81.50
78345;DHT22;67620;51.134;6.548;2024-03-22T01:41:17;11.10;81.70
78345;DHT22;67620;51.134;6.548;2024-03-22T01:43:43;11.00;82.10
78345;DHT22;67620;51.134;6.548;2024-03-22T01:46:09;11.10;82.00
78345;DHT22;67620;51.134;6.548;2024-03-22T01:48:35;11.10;81.80
78345;DHT22;67620;51.134;6.548;2024-03-22T01:51:02;11.00;82.10
78345;DHT22;67620;51.134;6.548;2024-03-22T01:53:29;11.10;82.10
78345;DHT22;67620;51.134;6.548;2024-03-22T01:55:55;11.10;82.00
78345;DHT22;67620;51.134;6.548;2024-03-22T01:58:21;11.10;81.90
78345;DHT22;67620;51.134;6.548;2024-03-22T02:00:47;11.20;81.80
78345;DHT22;67620;51.134;6.548;2024-03-22T02:03:13;11.20;81.60
78345;DHT22;67620;51.134;6.548;2024-03-22T02:05:38;11.20;81.80
78345;DHT22;67620;51.134;6.548;2024-03-22T02:08:04;11.20;82.00
78345;DHT22;67620;51.134;6.548;2024-03-22T02:10:30;11.10;82.20
78345;DHT22;67620;51.134;6.548;2024-03-22T02:12:56;11.10;82.20
78345;DHT22;67620;51.134;6.548;2024-03-22T02:15:22;11.10;82.20
78345;DHT22;67620;51.134;6.548;2024-03-22T02:17:47;11.20;82.20
78345;DHT22;67620;51.134;6.548;2024-03-22T02:20:13;11.10;82.20
78345;DHT22;67620;51.134;6.548;2024-03-22T02:22:39;11.10;82.30
78345;DHT22;67620;51.134;6.548;2024-03-22T02:25:04;11.10;82.70
78345;DHT22;67620;51.134;6.548;2024-03-22T02:27:30;11.10;82.50
78345;DHT22;67620;51.134;6.548;2024-03-22T02:29:56;11.20;82.20
78345;DHT22;67620;51.134;6.548;2024-03-22T02:32:21;11.20;82.20
78345;DHT22;67620;51.134;6.548;2024-03-22T02:34:47;11.20;82.20
78345;DHT22;67620;51.134;6.548;2024-03-22T02:37:13;11.20;82.40
78345;DHT22;67620;51.134;6.548;2024-03-22T02:39:38;11.20;82.40
78345;DHT22;67620;51.134;6.548;2024-03-22T02:42:04;11.30;82.20
78345;DHT22;67620;51.134;6.548;2024-03-22T02:44:29;11.30;82.00
78345;DHT22;67620;51.134;6.548;2024-03-22T02:46:55;11.20;82.20
78345;DHT22;67620;51.134;6.548;2024-03-22T02:49:21;11.30;82.40
78345;DHT22;67620;51.134;6.548;2024-03-22T02:51:46;11.30;82.30
78345;DHT22;67620;51.134;6.548;2024-03-22T02:54:12;11.20;82.50
78345;DHT22;67620;51.134;6.548;2024-03-22T02:56:38;11.20;82.40
78345;DHT22;67620;51.134;6.548;2024-03-22T02:59:03;11.20;82.70
78345;DHT22;67620;51.134;6.548;2024-03-22T03:01:29;11.30;82.50
78345;DHT22;67620;51.134;6.548;2024-03-22T03:03:54;11.30;82.40
78345;DHT22;67620;51.134;6.548;2024-03-22T03:06:20;11.30;82.50
78345;DHT22;67620;51.134;6.548;2024-03-22T03:08:46;11.20;82.80
78345;DHT22;67620;51.134;6.548;2024-03-22T03:11:13;11.10;83.00
78345;DHT22;67620;51.134;6.548;2024-03-22T03:13:39;11.10;83.10
78345;DHT22;67620;51.134;6.548;2024-03-22T03:16:05;11.10;83.20
78345;DHT22;67620;51.134;6.548;2024-03-22T03:18:30;11.10;83.30
78345;DHT22;67620;51.134;6.548;2024-03-22T03:20:56;11.10;83.20
78345;DHT22;67620;51.134;6.548;2024-03-22T03:23:21;11.10;83.30
78345;DHT22;67620;51.134;6.548;2024-03-22T03:25:47;11.10;83.30
78345;DHT22;67620;51.134;6.548;2024-03-22T03:28:13;11.10;83.40
78345;DHT22;67620;51.134;6.548;2024-03-22T03:30:39;11.00;83.70
78345;DHT22;67620;51.134;6.548;2024-03-22T03:33:05;11.00;83.80
78345;DHT22;67620;51.134;6.548;2024-03-22T03:35:30;11.00;83.80
78345;DHT22;67620;51.134;6.548;2024-03-22T03:37:56;10.90;84.20
78345;DHT22;67620;51.134;6.548;2024-03-22T03:40:22;10.90;84.30
78345;DHT22;67620;51.134;6.548;2024-03-22T03:42:53;11.00;83.90
78345;DHT22;67620;51.134;6.548;2024-03-22T03:45:18;11.00;84.00
78345;DHT22;67620;51.134;6.548;2024-03-22T03:47:44;10.90;84.10
78345;DHT22;67620;51.134;6.548;2024-03-22T03:50:09;11.00;84.10
78345;DHT22;67620;51.134;6.548;2024-03-22T03:52:35;11.00;83.80
78345;DHT22;67620;51.134;6.548;2024-03-22T03:55:01;11.00;83.70
78345;DHT22;67620;51.134;6.548;2024-03-22T03:57:26;10.90;84.00
78345;DHT22;67620;51.134;6.548;2024-03-22T03:59:52;10.80;84.30
78345;DHT22;67620;51.134;6.548;2024-03-22T04:02:18;10.80;84.40
78345;DHT22;67620;51.134;6.548;2024-03-22T04:04:43;10.90;84.30
78345;DHT22;67620;51.134;6.548;2024-03-22T04:07:09;10.90;84.30
78345;DHT22;67620;51.134;6.548;2024-03-22T04:09:34;10.90;83.80
78345;DHT22;67620;51.134;6.548;2024-03-22T04:12:00;10.90;84.00
78345;DHT22;67620;51.134;6.548;2024-03-22T04:14:26;11.00;83.60
78345;DHT22;67620;51.134;6.548;2024-03-22T04:16:51;11.00;83.30
78345;DHT22;67620;51.134;6.548;2024-03-22T04:19:20;11.10;83.20
78345;DHT22;67620;51.134;6.548;2024-03-22T04:21:46;11.00;83.30
78345;DHT22;67620;51.134;6.548;2024-03-22T04:24:11;11.00;83.20
78345;DHT22;67620;51.134;6.548;2024-03-22T04:26:37;11.00;82.80
78345;DHT22;67620;51.134;6.548;2024-03-22T04:29:02;11.10;82.50
78345;DHT22;67620;51.134;6.548;2024-03-22T04:31:28;11.10;82.30
78345;DHT22;67620;51.134;6.548;2024-03-22T04:33:53;11.10;82.00
78345;DHT22;67620;51.134;6.548;2024-03-22T04:36:19;11.20;81.50
78345;DHT22;67620;51.134;6.548;2024-03-22T04:38:45;11.20;81.30
78345;DHT22;67620;51.134;6.548;2024-03-22T04:41:10;11.20;81.40
78345;DHT22;67620;51.134;6.548;2024-03-22T04:43:36;11.20;81.60
78345;DHT22;67620;51.134;6.548;2024-03-22T04:46:01;11.30;80.70
78345;DHT22;67620;51.134;6.548;2024-03-22T04:48:27;11.30;80.40
78345;DHT22;67620;51.134;6.548;2024-03-22T04:50:53;11.30;79.80
78345;DHT22;67620;51.134;6.548;2024-03-22T04:53:21;11.40;79.50
78345;DHT22;67620;51.134;6.548;2024-03-22T04:55:48;11.40;79.50
78345;DHT22;67620;51.134;6.548;2024-03-22T05:00:39;11.40;79.30
78345;DHT22;67620;51.134;6.548;2024-03-22T05:03:04;11.40;79.60
78345;DHT22;67620;51.134;6.548;2024-03-22T05:05:30;11.40;79.50
78345;DHT22;67620;51.134;6.548;2024-03-22T05:07:56;11.40;79.30
78345;DHT22;67620;51.134;6.548;2024-03-22T05:10:22;11.40;79.30
78345;DHT22;67620;51.134;6.548;2024-03-22T05:12:47;11.40;79.40
78345;DHT22;67620;51.134;6.548;2024-03-22T05:15:13;11.40;79.70
78345;DHT22;67620;51.134;6.548;2024-03-22T05:17:38;11.40;80.30
78345;DHT22;67620;51.134;6.548;2024-03-22T05:20:05;11.40;79.70
78345;DHT22;67620;51.134;6.548;2024-03-22T05:22:33;11.40;79.60
78345;DHT22;67620;51.134;6.548;2024-03-22T05:24:59;11.40;79.70
78345;DHT22;67620;51.134;6.548;2024-03-22T05:27:24;11.40;80.10
78345;DHT22;67620;51.134;6.548;2024-03-22T05:29:50;11.50;78.80
78345;DHT22;67620;51.134;6.548;2024-03-22T05:32:15;11.50;79.00
78345;DHT22;67620;51.134;6.548;2024-03-22T05:34:41;11.50;79.80
78345;DHT22;67620;51.134;6.548;2024-03-22T05:37:07;11.50;79.50
78345;DHT22;67620;51.134;6.548;2024-03-22T05:39:34;11.50;79.40
78345;DHT22;67620;51.134;6.548;2024-03-22T05:42:00;11.50;79.40
78345;DHT22;67620;51.134;6.548;2024-03-22T05:44:25;11.60;79.00
78345;DHT22;67620;51.134;6.548;2024-03-22T05:46:51;11.60;78.90
78345;DHT22;67620;51.134;6.548;2024-03-22T05:49:16;11.60;79.00
78345;DHT22;67620;51.134;6.548;2024-03-22T05:51:42;11.70;78.60
78345;DHT22;67620;51.134;6.548;2024-03-22T05:54:07;11.60;79.20
78345;DHT22;67620;51.134;6.548;2024-03-22T05:56:33;11.60;79.50
78345;DHT22;67620;51.134;6.548;2024-03-22T05:58:59;11.60;79.30
78345;DHT22;67620;51.134;6.548;2024-03-22T06:01:25;11.80;78.20
78345;DHT22;67620;51.134;6.548;2024-03-22T06:03:50;11.80;77.90
78345;DHT22;67620;51.134;6.548;2024-03-22T06:06:16;11.90;78.10
78345;DHT22;67620;51.134;6.548;2024-03-22T06:08:41;11.90;78.10
78345;DHT22;67620;51.134;6.548;2024-03-22T06:11:09;11.90;78.30
78345;DHT22;67620;51.134;6.548;2024-03-22T06:13:34;11.90;78.40
78345;DHT22;67620;51.134;6.548;2024-03-22T06:16:01;11.90;78.50
78345;DHT22;67620;51.134;6.548;2024-03-22T06:18:27;12.00;78.40
78345;DHT22;67620;51.134;6.548;2024-03-22T06:20:52;12.00;78.60
78345;DHT22;67620;51.134;6.548;2024-03-22T06:23:23;12.00;78.60
78345;DHT22;67620;51.134;6.548;2024-03-22T06:25:52;12.00;78.70
78345;DHT22;67620;51.134;6.548;2024-03-22T06:28:18;12.00;78.40
78345;DHT22;67620;51.134;6.548;2024-03-22T06:30:44;12.00;78.50
78345;DHT22;67620;51.134;6.548;2024-03-22T06:33:09;12.00;78.50
78345;DHT22;67620;51.134;6.548;2024-03-22T06:35:35;12.10;78.60
78345;DHT22;67620;51.134;6.548;2024-03-22T06:38:00;12.10;78.50
78345;DHT22;67620;51.134;6.548;2024-03-22T06:40:28;12.10;79.00
78345;DHT22;67620;51.134;6.548;2024-03-22T06:42:54;12.10;78.60
78345;DHT22;67620;51.134;6.548;2024-03-22T06:45:19;12.10;78.90
78345;DHT22;67620;51.134;6.548;2024-03-22T06:47:45;12.20;79.10
78345;DHT22;67620;51.134;6.548;2024-03-22T06:50:11;12.20;79.30
78345;DHT22;67620;51.134;6.548;2024-03-22T06:52:37;12.20;79.20
78345;DHT22;67620;51.134;6.548;2024-03-22T06:55:02;12.20;79.30
78345;DHT22;67620;51.134;6.548;2024-03-22T06:57:29;12.20;79.50
78345;DHT22;67620;51.134;6.548;2024-03-22T06:59:54;12.30;79.40
78345;DHT22;67620;51.134;6.548;2024-03-22T07:02:20;12.30;79.20
78345;DHT22;67620;51.134;6.548;2024-03-22T07:04:46;12.30;79.60
78345;DHT22;67620;51.134;6.548;2024-03-22T07:07:11;12.20;79.80
78345;DHT22;67620;51.134;6.548;2024-03-22T07:09:37;12.20;79.60
78345;DHT22;67620;51.134;6.548;2024-03-22T07:12:03;12.20;79.50
78345;DHT22;67620;51.134;6.548;2024-03-22T07:14:29;12.30;79.50
78345;DHT22;67620;51.134;6.548;2024-03-22T07:16:54;12.30;80.20
78345;DHT22;67620;51.134;6.548;2024-03-22T07:19:20;12.40;79.90
78345;DHT22;67620;51.134;6.548;2024-03-22T07:21:47;12.40;79.80
78345;DHT22;67620;51.134;6.548;2024-03-22T07:24:12;12.40;80.30
78345;DHT22;67620;51.134;6.548;2024-03-22T07:26:38;12.50;79.50
78345;DHT22;67620;51.134;6.548;2024-03-22T07:29:03;12.50;79.70
78345;DHT22;67620;51.134;6.548;2024-03-22T07:31:29;12.60;79.70
78345;DHT22;67620;51.134;6.548;2024-03-22T07:33:55;12.60;79.40
78345;DHT22;67620;51.134;6.548;2024-03-22T07:36:21;12.80;79.30
78345;DHT22;67620;51.134;6.548;2024-03-22T07:38:47;12.80;79.00
78345;DHT22;67620;51.134;6.548;2024-03-22T07:41:14;12.80;78.70
78345;DHT22;67620;51.134;6.548;2024-03-22T07:43:40;12.90;79.30
78345;DHT22;67620;51.134;6.548;2024-03-22T07:46:05;12.80;78.90
78345;DHT22;67620;51.134;6.548;2024-03-22T07:48:31;12.90;79.70
78345;DHT22;67620;51.134;6.548;2024-03-22T07:51:01;12.90;79.20
78345;DHT22;67620;51.134;6.548;2024-03-22T07:53:27;13.00;78.70
78345;DHT22;67620;51.134;6.548;2024-03-22T07:55:52;13.00;78.50
78345;DHT22;67620;51.134;6.548;2024-03-22T07:58:19;12.90;78.30
78345;DHT22;67620;51.134;6.548;2024-03-22T08:00:45;12.90;78.30
78345;DHT22;67620;51.134;6.548;2024-03-22T08:03:17;12.90;78.00
78345;DHT22;67620;51.134;6.548;2024-03-22T08:05:43;12.90;78.20
78345;DHT22;67620;51.134;6.548;2024-03-22T08:08:08;13.00;78.50
78345;DHT22;67620;51.134;6.548;2024-03-22T08:10:34;12.90;78.30
78345;DHT22;67620;51.134;6.548;2024-03-22T08:13:00;13.00;78.30
78345;DHT22;67620;51.134;6.548;2024-03-22T08:15:29;13.00;77.90
78345;DHT22;67620;51.134;6.548;2024-03-22T08:17:55;13.00;78.90
78345;DHT22;67620;51.134;6.548;2024-03-22T08:20:23;13.00;77.10
78345;DHT22;67620;51.134;6.548;2024-03-22T08:22:48;13.00;78.00
78345;DHT22;67620;51.134;6.548;2024-03-22T08:25:14;13.00;78.20
78345;DHT22;67620;51.134;6.548;2024-03-22T08:27:43;13.00;77.10
78345;DHT22;67620;51.134;6.548;2024-03-22T08:30:10;13.10;77.10
78345;DHT22;67620;51.134;6.548;2024-03-22T08:32:35;13.20;76.70
78345;DHT22;67620;51.134;6.548;2024-03-22T08:35:01;13.20;77.10
78345;DHT22;67620;51.134;6.548;2024-03-22T08:37:26;13.30;75.80
78345;DHT22;67620;51.134;6.548;2024-03-22T08:39:52;13.40;75.50
78345;DHT22;67620;51.134;6.548;2024-03-22T08:42:18;13.50;75.70
78345;DHT22;67620;51.134;6.548;2024-03-22T08:44:44;13.80;73.60
78345;DHT22;67620;51.134;6.548;2024-03-22T08:47:09;14.10;73.40
78345;DHT22;67620;51.134;6.548;2024-03-22T08:49:35;14.90;70.70
78345;DHT22;67620;51.134;6.548;2024-03-22T08:52:01;15.20;69.90
78345;DHT22;67620;51.134;6.548;2024-03-22T08:54:27;15.30;68.40
78345;DHT22;67620;51.134;6.548;2024-03-22T08:56:53;15.90;67.70
78345;DHT22;67620;51.134;6.548;2024-03-22T08:59:19;16.10;66.80
78345;DHT22;67620;51.134;6.548;2024-03-22T09:01:44;15.70;67.40
78345;DHT22;67620;51.134;6.548;2024-03-22T09:04:10;15.60;68.30
78345;DHT22;67620;51.134;6.548;2024-03-22T09:06:35;15.10;69.30
78345;DHT22;67620;51.134;6.548;2024-03-22T09:09:01;14.70;69.60
78345;DHT22;67620;51.134;6.548;2024-03-22T09:11:26;14.50;70.40
78345;DHT22;67620;51.134;6.548;2024-03-22T09:13:52;15.80;67.30
78345;DHT22;67620;51.134;6.548;2024-03-22T09:16:20;17.40;61.90
78345;DHT22;67620;51.134;6.548;2024-03-22T09:18:47;16.10;64.60
78345;DHT22;67620;51.134;6.548;2024-03-22T09:21:12;15.70;66.30
78345;DHT22;67620;51.134;6.548;2024-03-22T09:23:38;15.40;66.90
78345;DHT22;67620;51.134;6.548;2024-03-22T09:26:03;15.40;68.40
78345;DHT22;67620;51.134;6.548;2024-03-22T09:28:29;15.40;66.50
78345;DHT22;67620;51.134;6.548;2024-03-22T09:30:55;16.20;66.20
78345;DHT22;67620;51.134;6.548;2024-03-22T09:33:21;16.30;65.70
78345;DHT22;67620;51.134;6.548;2024-03-22T09:35:47;15.80;66.90
78345;DHT22;67620;51.134;6.548;2024-03-22T09:38:13;15.50;68.80
78345;DHT22;67620;51.134;6.548;2024-03-22T09:40:39;15.30;69.60
78345;DHT22;67620;51.134;6.548;2024-03-22T09:43:06;15.10;70.20
78345;DHT22;67620;51.134;6.548;2024-03-22T09:45:33;14.90;70.70
78345;DHT22;67620;51.134;6.548;2024-03-22T09:47:59;14.80;70.10
78345;DHT22;67620;51.134;6.548;2024-03-22T09:50:26;14.60;71.10
78345;DHT22;67620;51.134;6.548;2024-03-22T09:52:51;14.60;71.60
78345;DHT22;67620;51.134;6.548;2024-03-22T09:55:19;14.40;71.00
78345;DHT22;67620;51.134;6.548;2024-03-22T09:57:47;14.30;72.10
78345;DHT22;67620;51.134;6.548;2024-03-22T10:00:15;14.20;72.90
78345;DHT22;67620;51.134;6.548;2024-03-22T10:02:42;14.20;72.50
78345;DHT22;67620;51.134;6.548;2024-03-22T10:05:07;14.10;72.60
78345;DHT22;67620;51.134;6.548;2024-03-22T10:07:33;14.00;72.50
78345;DHT22;67620;51.134;6.548;2024-03-22T10:09:58;14.00;72.10
78345;DHT22;67620;51.134;6.548;2024-03-22T10:12:24;14.00;73.30
78345;DHT22;67620;51.134;6.548;2024-03-22T10:14:54;14.00;73.90
78345;DHT22;67620;51.134;6.548;2024-03-22T10:17:19;14.00;74.20
78345;DHT22;67620;51.134;6.548;2024-03-22T10:19:45;14.10;74.20
78345;DHT22;67620;51.134;6.548;2024-03-22T10:22:11;14.10;73.30
78345;DHT22;67620;51.134;6.548;2024-03-22T10:24:36;14.00;74.20
78345;DHT22;67620;51.134;6.548;2024-03-22T10:27:02;14.10;73.50
78345;DHT22;67620;51.134;6.548;2024-03-22T10:29:27;14.20;74.30
78345;DHT22;67620;51.134;6.548;2024-03-22T10:31:53;14.10;72.70
78345;DHT22;67620;51.134;6.548;2024-03-22T10:34:20;14.20;72.90
78345;DHT22;67620;51.134;6.548;2024-03-22T10:36:46;14.10;71.90
78345;DHT22;67620;51.134;6.548;2024-03-22T10:39:12;14.20;71.90
78345;DHT22;67620;51.134;6.548;2024-03-22T10:41:38;14.10;71.40
78345;DHT22;67620;51.134;6.548;2024-03-22T10:44:04;14.00;71.60
78345;DHT22;67620;51.134;6.548;2024-03-22T10:46:30;13.90;72.60
78345;DHT22;67620;51.134;6.548;2024-03-22T10:48:56;13.80;73.10
78345;DHT22;67620;51.134;6.548;2024-03-22T10:51:22;13.80;72.90
78345;DHT22;67620;51.134;6.548;2024-03-22T10:53:48;13.80;73.00
78345;DHT22;67620;51.134;6.548;2024-03-22T10:56:14;13.80;74.30
78345;DHT22;67620;51.134;6.548;2024-03-22T10:58:41;13.80;74.30
78345;DHT22;67620;51.134;6.548;2024-03-22T11:01:11;13.70;72.90
78345;DHT22;67620;51.134;6.548;2024-03-22T11:03:46;13.50;71.20
78345;DHT22;67620;51.134;6.548;2024-03-22T11:06:11;13.50;71.50
78345;DHT22;67620;51.134;6.548;2024-03-22T11:08:37;13.60;71.90
78345;DHT22;67620;51.134;6.548;2024-03-22T11:11:10;13.70;71.20
78345;DHT22;67620;51.134;6.548;2024-03-22T11:13:37;13.80;72.10
78345;DHT22;67620;51.134;6.548;2024-03-22T11:16:04;13.80;71.20
78345;DHT22;67620;51.134;6.548;2024-03-22T11:18:30;13.90;70.10
78345;DHT22;67620;51.134;6.548;2024-03-22T11:20:56;14.00;70.40
78345;DHT22;67620;51.134;6.548;2024-03-22T11:23:22;14.00;70.40
78345;DHT22;67620;51.134;6.548;2024-03-22T11:25:48;14.10;70.20
78345;DHT22;67620;51.134;6.548;2024-03-22T11:28:13;14.20;71.00
78345;DHT22;67620;51.134;6.548;2024-03-22T11:30:39;14.20;69.00
78345;DHT22;67620;51.134;6.548;2024-03-22T11:33:05;14.20;69.20
78345;DHT22;67620;51.134;6.548;2024-03-22T11:35:31;14.30;68.70
78345;DHT22;67620;51.134;6.548;2024-03-22T11:37:58;14.60;69.30
78345;DHT22;67620;51.134;6.548;2024-03-22T11:40:25;14.70;66.90
78345;DHT22;67620;51.134;6.548;2024-03-22T11:42:51;14.70;68.40
78345;DHT22;67620;51.134;6.548;2024-03-22T11:45:17;14.60;67.90
78345;DHT22;67620;51.134;6.548;2024-03-22T11:47:44;14.50;68.50
78345;DHT22;67620;51.134;6.548;2024-03-22T11:50:10;14.60;68.60
78345;DHT22;67620;51.134;6.548;2024-03-22T11:52:40;14.50;67.30
78345;DHT22;67620;51.134;6.548;2024-03-22T11:55:05;14.40;69.40
78345;DHT22;67620;51.134;6.548;2024-03-22T11:57:31;14.40;67.90
78345;DHT22;67620;51.134;6.548;2024-03-22T12:00:00;14.30;70.00
78345;DHT22;67620;51.134;6.548;2024-03-22T12:02:26;14.30;69.10
78345;DHT22;67620;51.134;6.548;2024-03-22T12:04:51;14.40;70.50
78345;DHT22;67620;51.134;6.548;2024-03-22T12:07:17;14.30;68.70
78345;DHT22;67620;51.134;6.548;2024-03-22T12:09:43;14.30;69.60
78345;DHT22;67620;51.134;6.548;2024-03-22T12:12:10;14.30;71.20
78345;DHT22;67620;51.134;6.548;2024-03-22T12:14:35;14.40;71.20
78345;DHT22;67620;51.134;6.548;2024-03-22T12:17:04;14.40;69.60
78345;DHT22;67620;51.134;6.548;2024-03-22T12:19:30;14.40;69.90
78345;DHT22;67620;51.134;6.548;2024-03-22T12:21:55;14.30;69.30
78345;DHT22;67620;51.134;6.548;2024-03-22T12:24:21;14.40;69.50
78345;DHT22;67620;51.134;6.548;2024-03-22T12:26:47;14.50;70.70
78345;DHT22;67620;51.134;6.548;2024-03-22T12:29:14;14.40;69.70
78345;DHT22;67620;51.134;6.548;2024-03-22T12:31:40;14.30;70.90
78345;DHT22;67620;51.134;6.548;2024-03-22T12:34:06;14.30;70.80
78345;DHT22;67620;51.134;6.548;2024-03-22T12:36:31;14.30;70.20
78345;DHT22;67620;51.134;6.548;2024-03-22T12:38:57;14.10;70.50
78345;DHT22;67620;51.134;6.548;2024-03-22T12:41:23;14.20;69.70
78345;DHT22;67620;51.134;6.548;2024-03-22T12:43:48;14.30;69.90
78345;DHT22;67620;51.134;6.548;2024-03-22T12:46:14;14.30;70.20
78345;DHT22;67620;51.134;6.548;2024-03-22T12:48:39;14.40;70.00
78345;DHT22;67620;51.134;6.548;2024-03-22T12:51:05;14.40;69.60
78345;DHT22;67620;51.134;6.548;2024-03-22T12:53:31;14.50;69.40
78345;DHT22;67620;51.134;6.548;2024-03-22T12:55:57;14.60;69.30
78345;DHT22;67620;51.134;6.548;2024-03-22T12:58:22;14.40;69.80
78345;DHT22;67620;51.134;6.548;2024-03-22T13:00:48;14.40;69.60
78345;DHT22;67620;51.134;6.548;2024-03-22T13:03:13;14.50;69.60
78345;DHT22;67620;51.134;6.548;2024-03-22T13:05:41;14.60;68.70
78345;DHT22;67620;51.134;6.548;2024-03-22T13:08:07;14.60;69.60
78345;DHT22;67620;51.134;6.548;2024-03-22T13:10:32;14.40;69.10
78345;DHT22;67620;51.134;6.548;2024-03-22T13:12:58;14.30;70.00
78345;DHT22;67620;51.134;6.548;2024-03-22T13:15:23;14.20;70.20
78345;DHT22;67620;51.134;6.548;2024-03-22T13:17:49;14.10;70.20
78345;DHT22;67620;51.134;6.548;2024-03-22T13:20:15;14.00;70.80
78345;DHT22;67620;51.134;6.548;2024-03-22T13:22:43;14.00;70.90
78345;DHT22;67620;51.134;6.548;2024-03-22T13:25:09;14.00;71.10
78345;DHT22;67620;51.134;6.548;2024-03-22T13:27:36;13.90;70.90
78345;DHT22;67620;51.134;6.548;2024-03-22T13:30:05;14.00;71.50
78345;DHT22;67620;51.134;6.548;2024-03-22T13:32:30;13.80;70.70
78345;DHT22;67620;51.134;6.548;2024-03-22T13:34:56;13.80;70.70
78345;DHT22;67620;51.134;6.548;2024-03-22T13:37:22;13.90;70.20
78345;DHT22;67620;51.134;6.548;2024-03-22T13:39:50;13.90;70.90
78345;DHT22;67620;51.134;6.548;2024-03-22T13:42:16;13.80;71.20
78345;DHT22;67620;51.134;6.548;2024-03-22T13:44:41;13.60;71.10
78345;DHT22;67620;51.134;6.548;2024-03-22T13:47:07;13.70;71.80
78345;DHT22;67620;51.134;6.548;2024-03-22T13:49:32;13.70;72.00
78345;DHT22;67620;51.134;6.548;2024-03-22T13:51:58;13.70;71.70
78345;DHT22;67620;51.134;6.548;2024-03-22T13:54:24;13.70;71.60
78345;DHT22;67620;51.134;6.548;2024-03-22T13:56:50;13.60;71.30
78345;DHT22;67620;51.134;6.548;2024-03-22T13:59:15;13.60;71.10
78345;DHT22;67620;51.134;6.548;2024-03-22T14:01:41;13.50;71.60
78345;DHT22;67620;51.134;6.548;2024-03-22T14:04:07;13.50;71.90
78345;DHT22;67620;51.134;6.548;2024-03-22T14:06:32;13.40;71.30
78345;DHT22;67620;51.134;6.548;2024-03-22T14:08:58;13.40;72.00
78345;DHT22;67620;51.134;6.548;2024-03-22T14:11:27;13.50;72.10
78345;DHT22;67620;51.134;6.548;2024-03-22T14:13:53;13.60;70.90
78345;DHT22;67620;51.134;6.548;2024-03-22T14:16:18;13.70;71.20
78345;DHT22;67620;51.134;6.548;2024-03-22T14:18:44;13.70;71.30
78345;DHT22;67620;51.134;6.548;2024-03-22T14:21:09;13.60;71.30
78345;DHT22;67620;51.134;6.548;2024-03-22T14:23:36;13.50;71.20
78345;DHT22;67620;51.134;6.548;2024-03-22T14:26:02;13.30;71.80
78345;DHT22;67620;51.134;6.548;2024-03-22T14:28:27;13.30;72.10
78345;DHT22;67620;51.134;6.548;2024-03-22T14:30:53;13.40;72.20
78345;DHT22;67620;51.134;6.548;2024-03-22T14:33:18;13.40;72.30
78345;DHT22;67620;51.134;6.548;2024-03-22T14:35:44;13.50;72.10
78345;DHT22;67620;51.134;6.548;2024-03-22T14:38:09;13.50;72.10
78345;DHT22;67620;51.134;6.548;2024-03-22T14:40:35;13.50;72.10
78345;DHT22;67620;51.134;6.548;2024-03-22T14:43:02;13.40;72.80
78345;DHT22;67620;51.134;6.548;2024-03-22T14:45:28;13.40;72.70
78345;DHT22;67620;51.134;6.548;2024-03-22T14:47:53;13.40;72.80
78345;DHT22;67620;51.134;6.548;2024-03-22T14:50:19;13.40;72.60
78345;DHT22;67620;51.134;6.548;2024-03-22T14:52:47;13.40;72.60
78345;DHT22;67620;51.134;6.548;2024-03-22T14:55:13;13.40;72.00
78345;DHT22;67620;51.134;6.548;2024-03-22T14:57:38;13.40;72.60
78345;DHT22;67620;51.134;6.548;2024-03-22T15:00:04;13.30;72.70
78345;DHT22;67620;51.134;6.548;2024-03-22T15:02:35;13.20;73.30
78345;DHT22;67620;51.134;6.548;2024-03-22T15:05:00;13.20;73.10
78345;DHT22;67620;51.134;6.548;2024-03-22T15:07:26;13.10;73.00
78345;DHT22;67620;51.134;6.548;2024-03-22T15:09:51;13.20;73.20
78345;DHT22;67620;51.134;6.548;2024-03-22T15:12:16;13.00;73.40
78345;DHT22;67620;51.134;6.548;2024-03-22T15:14:42;13.00;73.40
78345;DHT22;67620;51.134;6.548;2024-03-22T15:17:07;13.00;74.60
78345;DHT22;67620;51.134;6.548;2024-03-22T15:19:34;12.90;75.90
78345;DHT22;67620;51.134;6.548;2024-03-22T15:22:00;12.70;77.30
78345;DHT22;67620;51.134;6.548;2024-03-22T15:24:25;12.50;78.10